sensor_id;sensor_type;location;lat;lon;timestamp;temperature;humidity
24176;DHT22;12324;48.146;11.502;2022-10-16T13:56:07;11.10;99.90
24176;DHT22;12324;48.146;11.502;2022-10-16T13:58:36;33.20;35.60
24176;DHT22;12324;48.146;11.502;2022-10-16T14:01:20;31.90;35.70
24176;DHT22;12324;48.146;11.502;2022-10-16T14:03:52;31.10;40.00
24176;DHT22;12324;48.146;11.502;2022-10-16T14:06:21;31.00;40.00
24176;DHT22;12324;48.146;11.502;2022-10-16T14:43:54;31.70;38.50
24176;DHT22;12324;48.146;11.502;2022-10-16T14:46:27;32.70;36.20
24176;DHT22;12324;48.146;11.502;2022-10-16T14:49:12;31.80;36.50
24176;DHT22;12324;48.146;11.502;2022-10-16T14:54:12;31.10;36.70
24176;DHT22;12324;48.146;11.502;2022-10-16T14:59:35;30.20;54.40
24176;DHT22;12324;48.146;11.502;2022-10-16T15:02:16;29.00;56.50
24176;DHT22;12324;48.146;11.502;2022-10-16T15:04:45;28.20;55.20
24176;DHT22;12324;48.146;11.502;2022-10-16T20:23:34;27.80;56.50
24176;DHT22;12324;48.146;11.502;2022-10-16T20:26:01;17.10;99.90
24176;DHT22;12324;48.146;11.502;2022-10-16T20:28:30;16.60;99.90
24176;DHT22;12324;48.146;11.502;2022-10-16T20:30:57;16.50;99.90
24176;DHT22;12324;48.146;11.502;2022-10-16T20:33:23;16.50;99.90
24176;DHT22;12324;48.146;11.502;2022-10-16T20:35:50;16.40;99.90
24176;DHT22;12324;48.146;11.502;2022-10-16T20:38:17;16.40;99.90
24176;DHT22;12324;48.146;11.502;2022-10-16T20:40:46;16.30;99.90
24176;DHT22;12324;48.146;11.502;2022-10-16T20:43:15;16.30;99.90
24176;DHT22;12324;48.146;11.502;2022-10-16T20:45:43;16.30;99.90
24176;DHT22;12324;48.146;11.502;2022-10-16T20:48:12;16.30;99.90
24176;DHT22;12324;48.146;11.502;2022-10-16T20:50:40;16.30;99.90
24176;DHT22;12324;48.146;11.502;2022-10-16T20:53:07;16.20;99.90
24176;DHT22;12324;48.146;11.502;2022-10-16T20:55:35;16.10;99.90
24176;DHT22;12324;48.146;11.502;2022-10-16T20:58:03;16.00;99.90
24176;DHT22;12324;48.146;11.502;2022-10-16T21:00:30;16.00;99.90
24176;DHT22;12324;48.146;11.502;2022-10-16T21:02:57;15.90;99.90
24176;DHT22;12324;48.146;11.502;2022-10-16T21:05:24;15.80;99.90
24176;DHT22;12324;48.146;11.502;2022-10-16T21:07:54;15.80;99.90
24176;DHT22;12324;48.146;11.502;2022-10-16T21:10:21;15.80;99.90
24176;DHT22;12324;48.146;11.502;2022-10-16T21:12:54;15.70;99.90
24176;DHT22;12324;48.146;11.502;2022-10-16T21:15:21;15.70;99.90
24176;DHT22;12324;48.146;11.502;2022-10-16T21:17:48;15.60;99.90
24176;DHT22;12324;48.146;11.502;2022-10-16T21:20:15;15.60;99.90
24176;DHT22;12324;48.146;11.502;2022-10-16T21:22:42;15.60;99.90
24176;DHT22;12324;48.146;11.502;2022-10-16T21:25:09;15.50;99.90
24176;DHT22;12324;48.146;11.502;2022-10-16T21:27:37;15.50;99.90
24176;DHT22;12324;48.146;11.502;2022-10-16T21:30:08;15.50;99.90
24176;DHT22;12324;48.146;11.502;2022-10-16T21:32:36;15.40;99.90
24176;DHT22;12324;48.146;11.502;2022-10-16T21:35:04;15.30;99.90
24176;DHT22;12324;48.146;11.502;2022-10-16T21:37:31;15.30;99.90
24176;DHT22;12324;48.146;11.502;2022-10-16T21:39:58;15.20;99.90
24176;DHT22;12324;48.146;11.502;2022-10-16T21:42:25;15.10;99.90
24176;DHT22;12324;48.146;11.502;2022-10-16T21:44:52;15.10;99.90
24176;DHT22;12324;48.146;11.502;2022-10-16T21:47:18;15.10;99.90
24176;DHT22;12324;48.146;11.502;2022-10-16T21:49:45;15.10;99.90
24176;DHT22;12324;48.146;11.502;2022-10-16T21:52:12;15.10;99.90
24176;DHT22;12324;48.146;11.502;2022-10-16T21:54:38;15.10;99.90
24176;DHT22;12324;48.146;11.502;2022-10-16T21:57:05;15.10;99.90
24176;DHT22;12324;48.146;11.502;2022-10-16T21:59:32;15.10;99.90
24176;DHT22;12324;48.146;11.502;2022-10-16T22:01:58;15.10;99.90
24176;DHT22;12324;48.146;11.502;2022-10-16T22:04:27;15.00;99.90
24176;DHT22;12324;48.146;11.502;2022-10-16T22:06:54;15.00;99.90
24176;DHT22;12324;48.146;11.502;2022-10-16T22:09:21;15.00;99.90
24176;DHT22;12324;48.146;11.502;2022-10-16T22:11:47;14.90;99.90
24176;DHT22;12324;48.146;11.502;2022-10-16T22:14:18;14.90;99.90
24176;DHT22;12324;48.146;11.502;2022-10-16T22:16:46;14.90;99.90
24176;DHT22;12324;48.146;11.502;2022-10-16T22:19:14;14.80;99.90
24176;DHT22;12324;48.146;11.502;2022-10-16T22:21:42;14.80;99.90
24176;DHT22;12324;48.146;11.502;2022-10-16T22:24:10;14.80;99.90
24176;DHT22;12324;48.146;11.502;2022-10-16T22:26:38;14.80;99.90
24176;DHT22;12324;48.146;11.502;2022-10-16T22:29:05;14.80;99.90
24176;DHT22;12324;48.146;11.502;2022-10-16T22:31:32;14.80;99.90
24176;DHT22;12324;48.146;11.502;2022-10-16T22:34:01;14.70;99.90
24176;DHT22;12324;48.146;11.502;2022-10-16T22:36:28;14.70;99.90
24176;DHT22;12324;48.146;11.502;2022-10-16T22:38:55;14.70;99.90
24176;DHT22;12324;48.146;11.502;2022-10-16T22:41:22;14.70;99.90
24176;DHT22;12324;48.146;11.502;2022-10-16T22:43:50;14.60;99.90
24176;DHT22;12324;48.146;11.502;2022-10-16T22:46:19;14.60;99.90
24176;DHT22;12324;48.146;11.502;2022-10-16T22:48:46;14.50;99.90
24176;DHT22;12324;48.146;11.502;2022-10-16T22:51:14;14.40;99.90
24176;DHT22;12324;48.146;11.502;2022-10-16T22:53:44;14.40;99.90
24176;DHT22;12324;48.146;11.502;2022-10-16T22:56:11;14.40;99.90
24176;DHT22;12324;48.146;11.502;2022-10-16T22:58:38;14.40;99.90
24176;DHT22;12324;48.146;11.502;2022-10-16T23:01:14;14.30;99.90
24176;DHT22;12324;48.146;11.502;2022-10-16T23:03:41;14.30;99.90
24176;DHT22;12324;48.146;11.502;2022-10-16T23:06:07;14.30;99.90
24176;DHT22;12324;48.146;11.502;2022-10-16T23:08:34;14.20;99.90
24176;DHT22;12324;48.146;11.502;2022-10-16T23:11:05;14.20;99.90
24176;DHT22;12324;48.146;11.502;2022-10-16T23:13:35;14.10;99.90
24176;DHT22;12324;48.146;11.502;2022-10-16T23:16:03;14.10;99.90
24176;DHT22;12324;48.146;11.502;2022-10-16T23:18:32;14.00;99.90
24176;DHT22;12324;48.146;11.502;2022-10-16T23:21:07;14.00;99.90
24176;DHT22;12324;48.146;11.502;2022-10-16T23:23:38;14.00;99.90
24176;DHT22;12324;48.146;11.502;2022-10-16T23:28:36;13.90;99.90
24176;DHT22;12324;48.146;11.502;2022-10-16T23:31:06;13.90;99.90
24176;DHT22;12324;48.146;11.502;2022-10-16T23:33:35;13.90;99.90
24176;DHT22;12324;48.146;11.502;2022-10-16T23:36:07;13.90;99.90
24176;DHT22;12324;48.146;11.502;2022-10-16T23:38:34;13.90;99.90
24176;DHT22;12324;48.146;11.502;2022-10-16T23:41:01;13.80;99.90
24176;DHT22;12324;48.146;11.502;2022-10-16T23:43:28;13.70;99.90
24176;DHT22;12324;48.146;11.502;2022-10-16T23:45:55;13.70;99.90
24176;DHT22;12324;48.146;11.502;2022-10-16T23:48:21;13.60;99.90
24176;DHT22;12324;48.146;11.502;2022-10-16T23:50:48;13.50;99.90
24176;DHT22;12324;48.146;11.502;2022-10-16T23:53:15;13.50;99.90
24176;DHT22;12324;48.146;11.502;2022-10-16T23:55:42;13.40;99.90
24176;DHT22;12324;48.146;11.502;2022-10-16T23:58:08;13.30;99.90
